Time;durP1;ratioP1;P1;durP2;ratioP2;P2;SDS_P1;SDS_P2;PMS_P1;PMS_P2;Temp;Humidity;BMP_temperature;BMP_pressure;BME280_temperature;BME280_humidity;BME280_pressure;Samples;Min_cycle;Max_cycle;Signal;HPM_P1;HPM_P2
2024/02/24 00:00:55;;;;;;;;;;;;;;;;;;6323870;28;19952;-79
2024/02/24 00:03:55;;;;;;;;;;;;;;;;;;6326191;28;19982;-78
2024/02/24 00:06:55;;;;;;;;;;;;;;;;;;6326587;28;19909;-78
2024/02/24 00:09:55;;;;;;;;;;;;;;;;;;6332423;28;19922;-78
2024/02/24 00:12:56;;;;;;;;;;;;;;;;;;6325107;28;20010;-78
2024/02/24 00:15:56;;;;;;;;;;;;;;;;;;6324654;28;20416;-78
2024/02/24 00:18:59;;;;;;;;;;;;;;;;;;6326085;28;19920;-78
2024/02/24 00:21:59;;;;;;;;;;;;;;;;;;6325611;28;19908;-78
2024/02/24 00:24:59;;;;;;;;;;;;;;;;;;6326290;28;19959;-78
2024/02/24 00:27:59;;;;;;;;;;;;;;;;;;6322928;28;20345;-78
2024/02/24 00:30:59;;;;;;;;;;;;;;;;;;6327142;28;19916;-76
2024/02/24 00:33:59;;;;;;;;;;;;;;;;;;6323738;28;19908;-76
2024/02/24 00:37:00;;;;;;;;;;;;;;;;;;6323555;28;20361;-76
2024/02/24 00:40:00;;;;;;;;;;;;;;;;;;6323613;28;19916;-76
2024/02/24 00:43:00;;;;;;;;;;;;;;;;;;6322772;28;19908;-76
2024/02/24 00:46:00;;;;;;;;;;;;;;;;;;6321568;28;19925;-76
2024/02/24 00:49:00;;;;;;;;;;;;;;;;;;6319687;28;20287;-75
2024/02/24 00:52:00;;;;;;;;;;;;;;;;;;6348151;28;19912;-76
2024/02/24 00:55:00;;;;;;;;;;;;;;;;;;6349490;28;19911;-76
2024/02/24 00:58:01;;;;;;;;;;;;;;;;;;6348342;28;19920;-76
2024/02/24 01:01:01;;;;;;;;;;;;;;;;;;6344823;28;19912;-76
2024/02/24 01:04:01;;;;;;;;;;;;;;;;;;6322916;28;19915;-76
2024/02/24 01:07:01;;;;;;;;;;;;;;;;;;6341980;28;20492;-76
2024/02/24 01:10:01;;;;;;;;;;;;;;;;;;6348171;28;19918;-76
2024/02/24 01:13:01;;;;;;;;;;;;;;;;;;6349983;27;19926;-76
2024/02/24 01:16:01;;;;;;;;;;;;;;;;;;6347624;28;19923;-76
2024/02/24 01:19:01;;;;;;;;;;;;;;;;;;6348331;28;19919;-76
2024/02/24 01:22:04;;;;;;;;;;;;;;;;;;6346950;28;20481;-77
2024/02/24 01:25:04;;;;;;;;;;;;;;;;;;6353912;28;19908;-77
2024/02/24 01:28:05;;;;;;;;;;;;;;;;;;6347463;28;19907;-76
2024/02/24 01:31:05;;;;;;;;;;;;;;;;;;6345847;28;20058;-76
2024/02/24 01:34:05;;;;;;;;;;;;;;;;;;6346597;28;19908;-77
2024/02/24 01:37:06;;;;;;;;;;;;;;;;;;6354833;28;19912;-76
2024/02/24 01:40:06;;;;;;;;;;;;;;;;;;6346787;28;19916;-77
2024/02/24 01:43:06;;;;;;;;;;;;;;;;;;6347107;28;20009;-75
2024/02/24 01:46:06;;;;;;;;;;;;;;;;;;6347360;28;19919;-76
2024/02/24 01:49:06;;;;;;;;;;;;;;;;;;6360124;28;19915;-76
2024/02/24 01:52:07;;;;;;;;;;;;;;;;;;6367587;28;19970;-76
2024/02/24 01:55:07;;;;;;;;;;;;;;;;;;6371049;28;19956;-77
2024/02/24 01:58:08;;;;;;;;;;;;;;;;;;6347014;28;19916;-76
2024/02/24 02:01:08;;;;;;;;;;;;;;;;;;6345595;28;19912;-76
2024/02/24 02:04:08;;;;;;;;;;;;;;;;;;6347776;28;20337;-76
2024/02/24 02:07:08;;;;;;;;;;;;;;;;;;6347442;28;20276;-76
2024/02/24 02:10:08;;;;;;;;;;;;;;;;;;6361470;28;19918;-76
2024/02/24 02:13:09;;;;;;;;;;;;;;;;;;6362591;28;19927;-76
2024/02/24 02:16:09;;;;;;;;;;;;;;;;;;6346858;28;19911;-76
2024/02/24 02:19:09;;;;;;;;;;;;;;;;;;6347538;28;19911;-77
2024/02/24 02:22:11;;;;;;;;;;;;;;;;;;6350235;27;19923;-76
2024/02/24 02:25:11;;;;;;;;;;;;;;;;;;6351145;27;19912;-76
2024/02/24 02:28:11;;;;;;;;;;;;;;;;;;6354946;27;19918;-76
2024/02/24 02:31:11;;;;;;;;;;;;;;;;;;6376962;27;19907;-76
2024/02/24 02:34:11;;;;;;;;;;;;;;;;;;6377231;27;20257;-77
2024/02/24 02:37:11;;;;;;;;;;;;;;;;;;6376065;27;20249;-75
2024/02/24 02:40:11;;;;;;;;;;;;;;;;;;6354321;27;20288;-76
2024/02/24 02:43:11;;;;;;;;;;;;;;;;;;6364311;27;20276;-76
2024/02/24 02:46:12;;;;;;;;;;;;;;;;;;6377621;27;19912;-75
2024/02/24 02:49:12;;;;;;;;;;;;;;;;;;6377880;27;19997;-77
2024/02/24 02:52:12;;;;;;;;;;;;;;;;;;6364580;27;20006;-79
2024/02/24 02:55:12;;;;;;;;;;;;;;;;;;6351591;28;20003;-79
2024/02/24 02:58:13;;;;;;;;;;;;;;;;;;6349690;28;19923;-78
2024/02/24 03:01:13;;;;;;;;;;;;;;;;;;6366257;27;19912;-79
2024/02/24 03:04:14;;;;;;;;;;;;;;;;;;6377064;27;20380;-78
2024/02/24 03:07:14;;;;;;;;;;;;;;;;;;6354292;27;19919;-78
2024/02/24 03:10:14;;;;;;;;;;;;;;;;;;6351518;28;19911;-79
2024/02/24 03:13:14;;;;;;;;;;;;;;;;;;6346890;27;19924;-78
2024/02/24 03:16:14;;;;;;;;;;;;;;;;;;6329485;28;19916;-79
2024/02/24 03:19:14;;;;;;;;;;;;;;;;;;6326369;28;19919;-79
2024/02/24 03:22:14;;;;;;;;;;;;;;;;;;6325583;28;19912;-78
2024/02/24 03:25:15;;;;;;;;;;;;;;;;;;6335970;28;19908;-78
2024/02/24 03:28:16;;;;;;;;;;;;;;;;;;6346407;28;19961;-79
2024/02/24 03:31:16;;;;;;;;;;;;;;;;;;6324548;28;19913;-79
2024/02/24 03:34:16;;;;;;;;;;;;;;;;;;6346068;28;20272;-79
2024/02/24 03:37:16;;;;;;;;;;;;;;;;;;6351046;28;20284;-79
2024/02/24 03:40:17;;;;;;;;;;;;;;;;;;6332845;28;19916;-79
2024/02/24 03:43:17;;;;;;;;;;;;;;;;;;6349369;28;20257;-78
2024/02/24 03:46:17;;;;;;;;;;;;;;;;;;6349425;28;19915;-78
2024/02/24 03:49:17;;;;;;;;;;;;;;;;;;6349319;28;19912;-78
2024/02/24 03:52:17;;;;;;;;;;;;;;;;;;6330342;28;20020;-78
2024/02/24 03:55:17;;;;;;;;;;;;;;;;;;6328854;28;19913;-79
2024/02/24 03:58:18;;;;;;;;;;;;;;;;;;6325062;28;19912;-77
2024/02/24 04:01:18;;;;;;;;;;;;;;;;;;6306018;28;19916;-76
2024/02/24 04:04:18;;;;;;;;;;;;;;;;;;6325022;28;19909;-76
2024/02/24 04:07:18;;;;;;;;;;;;;;;;;;6351022;28;19908;-75
2024/02/24 04:10:18;;;;;;;;;;;;;;;;;;6335079;28;19912;-76
2024/02/24 04:13:20;;;;;;;;;;;;;;;;;;6329646;28;19926;-76
2024/02/24 04:16:20;;;;;;;;;;;;;;;;;;6332060;28;19919;-76
2024/02/24 04:19:20;;;;;;;;;;;;;;;;;;6350701;28;19911;-76
2024/02/24 04:22:20;;;;;;;;;;;;;;;;;;6342907;28;20433;-76
2024/02/24 04:25:20;;;;;;;;;;;;;;;;;;6350300;28;19951;-76
2024/02/24 04:28:21;;;;;;;;;;;;;;;;;;6345611;28;19998;-76
2024/02/24 04:31:21;;;;;;;;;;;;;;;;;;6319039;28;19908;-76
2024/02/24 04:34:21;;;;;;;;;;;;;;;;;;6313491;28;19915;-76
2024/02/24 04:37:21;;;;;;;;;;;;;;;;;;6324520;28;19920;-75
2024/02/24 04:40:22;;;;;;;;;;;;;;;;;;6326082;28;20015;-76
2024/02/24 04:43:22;;;;;;;;;;;;;;;;;;6339421;28;20317;-76
2024/02/24 04:46:22;;;;;;;;;;;;;;;;;;6324603;28;20345;-75
2024/02/24 04:49:22;;;;;;;;;;;;;;;;;;6326132;28;19955;-76
2024/02/24 04:52:22;;;;;;;;;;;;;;;;;;6325015;28;19912;-76
2024/02/24 04:55:23;;;;;;;;;;;;;;;;;;6319533;28;19916;-76
2024/02/24 04:58:24;;;;;;;;;;;;;;;;;;6349184;28;19955;-77
2024/02/24 05:01:24;;;;;;;;;;;;;;;;;;6349965;28;20300;-76
2024/02/24 05:04:24;;;;;;;;;;;;;;;;;;6350618;28;19908;-77
2024/02/24 05:07:24;;;;;;;;;;;;;;;;;;6326913;28;19916;-76
2024/02/24 05:10:25;;;;;;;;;;;;;;;;;;6340605;28;19912;-76
2024/02/24 05:13:25;;;;;;;;;;;;;;;;;;6343846;28;20285;-77
2024/02/24 05:16:25;;;;;;;;;;;;;;;;;;6345538;28;19984;-77
2024/02/24 05:19:25;;;;;;;;;;;;;;;;;;6350268;28;20386;-77
2024/02/24 05:22:25;;;;;;;;;;;;;;;;;;6349330;28;20431;-78
2024/02/24 05:25:25;;;;;;;;;;;;;;;;;;6349827;28;19947;-76
2024/02/24 05:28:26;;;;;;;;;;;;;;;;;;6323905;28;19919;-76
2024/02/24 05:31:26;;;;;;;;;;;;;;;;;;6330212;28;19915;-77
2024/02/24 05:34:26;;;;;;;;;;;;;;;;;;6331125;28;19916;-77
2024/02/24 05:37:26;;;;;;;;;;;;;;;;;;6324021;28;20280;-77
2024/02/24 05:40:26;;;;;;;;;;;;;;;;;;6323898;28;20369;-76
2024/02/24 05:43:27;;;;;;;;;;;;;;;;;;6334920;28;20010;-76
2024/02/24 05:46:27;;;;;;;;;;;;;;;;;;6338270;28;20000;-76
2024/02/24 05:49:27;;;;;;;;;;;;;;;;;;6306889;28;20011;-77
2024/02/24 05:52:27;;;;;;;;;;;;;;;;;;6314839;28;19947;-77
2024/02/24 05:55:27;;;;;;;;;;;;;;;;;;6325300;28;19908;-77
2024/02/24 05:58:28;;;;;;;;;;;;;;;;;;6330846;28;19916;-76
2024/02/24 06:01:29;;;;;;;;;;;;;;;;;;6353025;28;19927;-76
2024/02/24 06:04:29;;;;;;;;;;;;;;;;;;6330613;28;19908;-77
2024/02/24 06:07:29;;;;;;;;;;;;;;;;;;6328024;28;20266;-77
2024/02/24 06:10:29;;;;;;;;;;;;;;;;;;6327172;28;19918;-76
2024/02/24 06:13:29;;;;;;;;;;;;;;;;;;6334520;28;19927;-76
2024/02/24 06:16:29;;;;;;;;;;;;;;;;;;6341140;28;19908;-76
2024/02/24 06:19:30;;;;;;;;;;;;;;;;;;6353010;28;19912;-77
2024/02/24 06:22:30;;;;;;;;;;;;;;;;;;6352470;28;19919;-79
2024/02/24 06:25:30;;;;;;;;;;;;;;;;;;6351617;28;19908;-79
2024/02/24 06:28:30;;;;;;;;;;;;;;;;;;6349996;28;19912;-79
2024/02/24 06:31:30;;;;;;;;;;;;;;;;;;6351747;28;19908;-79
2024/02/24 06:34:31;;;;;;;;;;;;;;;;;;6352293;28;19966;-79
2024/02/24 06:37:31;;;;;;;;;;;;;;;;;;6336902;28;19995;-80
2024/02/24 06:40:31;;;;;;;;;;;;;;;;;;6330770;28;19994;-80
2024/02/24 06:43:31;;;;;;;;;;;;;;;;;;6350498;28;20007;-79
2024/02/24 06:46:31;;;;;;;;;;;;;;;;;;6351591;28;19915;-80
2024/02/24 06:49:31;;;;;;;;;;;;;;;;;;6352121;28;19907;-79
2024/02/24 06:52:31;;;;;;;;;;;;;;;;;;6335933;28;19912;-79
2024/02/24 06:55:31;;;;;;;;;;;;;;;;;;6326777;28;19920;-79
2024/02/24 06:58:32;;;;;;;;;;;;;;;;;;6327213;28;19916;-79
2024/02/24 07:01:32;;;;;;;;;;;;;;;;;;6332782;28;19920;-79
2024/02/24 07:04:33;;;;;;;;;;;;;;;;;;6351285;28;19957;-79
2024/02/24 07:07:33;;;;;;;;;;;;;;;;;;6325849;28;19921;-79
2024/02/24 07:10:33;;;;;;;;;;;;;;;;;;6307630;28;20373;-79
2024/02/24 07:13:33;;;;;;;;;;;;;;;;;;6345329;27;20295;-79
2024/02/24 07:16:33;;;;;;;;;;;;;;;;;;6355191;27;19961;-79
2024/02/24 07:19:33;;;;;;;;;;;;;;;;;;6357833;27;19937;-80
2024/02/24 07:22:33;;;;;;;;;;;;;;;;;;6375887;27;19915;-79
2024/02/24 07:25:34;;;;;;;;;;;;;;;;;;6376528;27;19913;-79
2024/02/24 07:28:34;;;;;;;;;;;;;;;;;;6375516;27;19908;-79
2024/02/24 07:31:34;;;;;;;;;;;;;;;;;;6372438;27;19911;-77
2024/02/24 07:34:34;;;;;;;;;;;;;;;;;;6372020;27;19911;-77
2024/02/24 07:37:34;;;;;;;;;;;;;;;;;;6375583;27;19958;-77
2024/02/24 07:40:35;;;;;;;;;;;;;;;;;;6352052;27;20256;-77
2024/02/24 07:43:35;;;;;;;;;;;;;;;;;;6348271;27;19919;-77
2024/02/24 07:46:35;;;;;;;;;;;;;;;;;;6349716;28;20372;-77
2024/02/24 07:49:35;;;;;;;;;;;;;;;;;;6362327;27;20398;-77
2024/02/24 07:52:37;;;;;;;;;;;;;;;;;;6366157;27;19918;-77
2024/02/24 07:55:37;;;;;;;;;;;;;;;;;;6367750;27;19916;-77
2024/02/24 07:58:37;;;;;;;;;;;;;;;;;;6360400;27;19915;-78
2024/02/24 08:01:37;;;;;;;;;;;;;;;;;;6370492;27;19919;-77
2024/02/24 08:04:37;;;;;;;;;;;;;;;;;;6373513;27;20341;-77
2024/02/24 08:07:37;;;;;;;;;;;;;;;;;;6375268;27;19911;-77
2024/02/24 08:10:37;;;;;;;;;;;;;;;;;;6357799;27;19923;-77
2024/02/24 08:13:41;;;;;;;;;;;;;;;;;;6356072;27;19920;-77
2024/02/24 08:16:41;;;;;;;;;;;;;;;;;;6349907;27;20386;-77
2024/02/24 08:19:42;;;;;;;;;;;;;;;;;;6348646;28;19967;-78
2024/02/24 08:22:43;;;;;;;;;;;;;;;;;;6368866;27;19915;-77
2024/02/24 08:25:43;;;;;;;;;;;;;;;;;;6366630;27;19916;-77
2024/02/24 08:28:43;;;;;;;;;;;;;;;;;;6347350;28;20013;-77
2024/02/24 08:31:44;;;;;;;;;;;;;;;;;;6347304;28;20324;-77
2024/02/24 08:34:44;;;;;;;;;;;;;;;;;;6347195;28;19912;-78
2024/02/24 08:37:44;;;;;;;;;;;;;;;;;;6348397;28;20260;-78
2024/02/24 08:40:44;;;;;;;;;;;;;;;;;;6360575;27;20387;-78
2024/02/24 08:43:44;;;;;;;;;;;;;;;;;;6372140;27;20002;-78
2024/02/24 08:46:44;;;;;;;;;;;;;;;;;;6373654;27;19916;-78
2024/02/24 08:49:45;;;;;;;;;;;;;;;;;;6373960;27;19908;-77
2024/02/24 08:52:45;;;;;;;;;;;;;;;;;;6355577;27;19943;-77
2024/02/24 08:55:45;;;;;;;;;;;;;;;;;;6366927;27;20360;-78
2024/02/24 08:58:45;;;;;;;;;;;;;;;;;;6370793;27;20351;-77
2024/02/24 09:01:45;;;;;;;;;;;;;;;;;;6360623;27;19916;-77
2024/02/24 09:04:45;;;;;;;;;;;;;;;;;;6348360;27;19912;-78
2024/02/24 09:07:45;;;;;;;;;;;;;;;;;;6374316;27;19957;-78
2024/02/24 09:10:45;;;;;;;;;;;;;;;;;;6374336;27;19912;-78
2024/02/24 09:13:46;;;;;;;;;;;;;;;;;;6348109;27;20023;-77
2024/02/24 09:16:46;;;;;;;;;;;;;;;;;;6331295;28;20008;-78
2024/02/24 09:19:46;;;;;;;;;;;;;;;;;;6341072;28;19915;-78
2024/02/24 09:22:47;;;;;;;;;;;;;;;;;;6348550;28;19939;-77
2024/02/24 09:25:47;;;;;;;;;;;;;;;;;;6349987;28;19908;-77
2024/02/24 09:28:47;;;;;;;;;;;;;;;;;;6349813;28;19919;-77
2024/02/24 09:31:48;;;;;;;;;;;;;;;;;;6334694;28;19908;-77
2024/02/24 09:34:48;;;;;;;;;;;;;;;;;;6313912;28;19912;-78
2024/02/24 09:37:48;;;;;;;;;;;;;;;;;;6350949;28;19920;-78
2024/02/24 09:40:48;;;;;;;;;;;;;;;;;;6348899;28;19916;-78
2024/02/24 09:43:48;;;;;;;;;;;;;;;;;;6342775;28;19930;-78
2024/02/24 09:46:48;;;;;;;;;;;;;;;;;;6331119;28;19919;-77
2024/02/24 09:49:48;;;;;;;;;;;;;;;;;;6345785;28;19912;-77
2024/02/24 09:52:48;;;;;;;;;;;;;;;;;;6325884;28;19912;-80
2024/02/24 09:55:49;;;;;;;;;;;;;;;;;;6330495;28;19915;-80
2024/02/24 09:58:49;;;;;;;;;;;;;;;;;;6312993;28;20007;-80
2024/02/24 10:01:49;;;;;;;;;;;;;;;;;;6335280;28;19912;-80
2024/02/24 10:04:50;;;;;;;;;;;;;;;;;;6329336;28;20360;-80
2024/02/24 10:07:50;;;;;;;;;;;;;;;;;;6346617;28;19953;-80
2024/02/24 10:10:51;;;;;;;;;;;;;;;;;;6326116;28;19973;-80
2024/02/24 10:13:51;;;;;;;;;;;;;;;;;;6334267;28;20376;-80
2024/02/24 10:16:52;;;;;;;;;;;;;;;;;;6322229;28;19908;-80
2024/02/24 10:19:52;;;;;;;;;;;;;;;;;;6321086;28;20369;-79
2024/02/24 10:22:53;;;;;;;;;;;;;;;;;;6336317;28;19969;-80
2024/02/24 10:25:57;;;;;;;;;;;;;;;;;;6348726;28;19907;-80
2024/02/24 10:28:57;;;;;;;;;;;;;;;;;;6326602;28;19962;-80
2024/02/24 10:31:57;;;;;;;;;;;;;;;;;;6323329;28;19957;-80
2024/02/24 10:34:57;;;;;;;;;;;;;;;;;;6329808;28;19916;-80
2024/02/24 10:37:57;;;;;;;;;;;;;;;;;;6345986;28;19923;-80
2024/02/24 10:40:58;;;;;;;;;;;;;;;;;;6347900;28;19955;-80
2024/02/24 10:43:58;;;;;;;;;;;;;;;;;;6353150;28;20022;-80
2024/02/24 10:46:58;;;;;;;;;;;;;;;;;;6321165;28;20297;-80
2024/02/24 10:49:58;;;;;;;;;;;;;;;;;;6342148;28;20386;-80
2024/02/24 10:52:58;;;;;;;;;;;;;;;;;;6322799;28;19994;-80
2024/02/24 10:55:58;;;;;;;;;;;;;;;;;;6340097;28;19916;-80
2024/02/24 10:58:58;;;;;;;;;;;;;;;;;;6326066;28;19922;-80
2024/02/24 11:01:59;;;;;;;;;;;;;;;;;;6325086;28;20446;-77
2024/02/24 11:04:59;;;;;;;;;;;;;;;;;;6330957;28;19943;-77
2024/02/24 11:08:00;;;;;;;;;;;;;;;;;;6325723;28;20360;-77
2024/02/24 11:11:00;;;;;;;;;;;;;;;;;;6326290;28;19951;-77
2024/02/24 11:14:00;;;;;;;;;;;;;;;;;;6341834;27;19965;-77
2024/02/24 11:17:00;;;;;;;;;;;;;;;;;;6375270;27;19954;-77
2024/02/24 11:20:00;;;;;;;;;;;;;;;;;;6376210;27;19958;-77
2024/02/24 11:23:01;;;;;;;;;;;;;;;;;;6372332;27;19916;-77
2024/02/24 11:26:01;;;;;;;;;;;;;;;;;;6351499;28;19907;-78
2024/02/24 11:29:02;;;;;;;;;;;;;;;;;;6350680;28;19914;-77
2024/02/24 11:32:02;;;;;;;;;;;;;;;;;;6372414;27;19942;-77
2024/02/24 11:35:02;;;;;;;;;;;;;;;;;;6369769;27;19938;-77
2024/02/24 11:38:02;;;;;;;;;;;;;;;;;;6350571;28;20291;-77
2024/02/24 11:41:03;;;;;;;;;;;;;;;;;;6350684;28;20348;-78
2024/02/24 11:44:03;;;;;;;;;;;;;;;;;;6350565;28;19915;-78
2024/02/24 11:47:04;;;;;;;;;;;;;;;;;;6348733;27;19919;-78
2024/02/24 11:50:04;;;;;;;;;;;;;;;;;;6350098;28;19912;-78
2024/02/24 11:53:04;;;;;;;;;;;;;;;;;;6371340;27;19989;-77
2024/02/24 11:56:04;;;;;;;;;;;;;;;;;;6374229;27;19911;-77
2024/02/24 11:59:04;;;;;;;;;;;;;;;;;;6373632;27;19920;-77
2024/02/24 12:02:04;;;;;;;;;;;;;;;;;;6356792;27;19908;-78
2024/02/24 12:05:05;;;;;;;;;;;;;;;;;;6363400;27;19954;-77
2024/02/24 12:08:05;;;;;;;;;;;;;;;;;;6375071;27;19998;-78
2024/02/24 12:11:05;;;;;;;;;;;;;;;;;;6352830;27;19919;-79
2024/02/24 12:14:05;;;;;;;;;;;;;;;;;;6380852;27;19919;-79
2024/02/24 12:17:05;;;;;;;;;;;;;;;;;;6399663;27;20290;-78
2024/02/24 12:20:05;;;;;;;;;;;;;;;;;;6390700;27;20283;-78
2024/02/24 12:23:06;;;;;;;;;;;;;;;;;;6371774;27;20397;-78
2024/02/24 12:26:06;;;;;;;;;;;;;;;;;;6374615;27;19918;-78
2024/02/24 12:29:06;;;;;;;;;;;;;;;;;;6372719;27;20383;-78
2024/02/24 12:32:06;;;;;;;;;;;;;;;;;;6381074;27;20337;-78
2024/02/24 12:35:06;;;;;;;;;;;;;;;;;;6365793;27;19919;-77
2024/02/24 12:38:07;;;;;;;;;;;;;;;;;;6374624;27;19927;-77
2024/02/24 12:41:08;;;;;;;;;;;;;;;;;;6374845;27;19911;-78
2024/02/24 12:44:08;;;;;;;;;;;;;;;;;;6373680;27;19950;-77
2024/02/24 12:47:08;;;;;;;;;;;;;;;;;;6354331;27;19925;-77
2024/02/24 12:50:09;;;;;;;;;;;;;;;;;;6391246;27;19911;-77
2024/02/24 12:53:09;;;;;;;;;;;;;;;;;;6378848;27;19911;-77
2024/02/24 12:56:09;;;;;;;;;;;;;;;;;;6390870;27;20009;-77
2024/02/24 12:59:10;;;;;;;;;;;;;;;;;;6384130;27;19919;-78
2024/02/24 13:02:10;;;;;;;;;;;;;;;;;;6371107;27;20304;-78
2024/02/24 13:05:10;;;;;;;;;;;;;;;;;;6394957;27;19936;-78
2024/02/24 13:08:10;;;;;;;;;;;;;;;;;;6379782;27;19912;-77
2024/02/24 13:11:11;;;;;;;;;;;;;;;;;;6392207;27;20419;-78
2024/02/24 13:14:11;;;;;;;;;;;;;;;;;;6357688;27;19919;-78
2024/02/24 13:17:11;;;;;;;;;;;;;;;;;;6322997;28;19916;-77
2024/02/24 13:20:11;;;;;;;;;;;;;;;;;;6324714;28;19916;-78
2024/02/24 13:23:11;;;;;;;;;;;;;;;;;;6325433;28;19912;-80
2024/02/24 13:26:11;;;;;;;;;;;;;;;;;;6348736;28;19908;-80
2024/02/24 13:29:12;;;;;;;;;;;;;;;;;;6346938;28;20371;-80
2024/02/24 13:32:12;;;;;;;;;;;;;;;;;;6343160;28;19912;-80
2024/02/24 13:35:12;;;;;;;;;;;;;;;;;;6329594;28;20006;-81
2024/02/24 13:38:12;;;;;;;;;;;;;;;;;;6345938;28;19919;-80
2024/02/24 13:41:12;;;;;;;;;;;;;;;;;;6314808;28;19908;-80
2024/02/24 13:44:12;;;;;;;;;;;;;;;;;;6321981;28;19912;-80
2024/02/24 13:47:14;;;;;;;;;;;;;;;;;;6338246;28;19958;-80
2024/02/24 13:50:15;;;;;;;;;;;;;;;;;;6345591;28;19912;-80
2024/02/24 13:53:15;;;;;;;;;;;;;;;;;;6340717;28;19914;-80
2024/02/24 13:56:15;;;;;;;;;;;;;;;;;;6342020;28;19939;-80
2024/02/24 13:59:15;;;;;;;;;;;;;;;;;;6347226;28;19922;-80
2024/02/24 14:02:16;;;;;;;;;;;;;;;;;;6345801;28;19908;-80
2024/02/24 14:05:16;;;;;;;;;;;;;;;;;;6313728;28;19908;-79
2024/02/24 14:08:16;;;;;;;;;;;;;;;;;;6321173;28;19977;-80
2024/02/24 14:11:16;;;;;;;;;;;;;;;;;;6346399;28;20272;-80
2024/02/24 14:14:16;;;;;;;;;;;;;;;;;;6333208;28;20284;-80
2024/02/24 14:17:16;;;;;;;;;;;;;;;;;;6348472;28;20289;-80
2024/02/24 14:20:17;;;;;;;;;;;;;;;;;;6348985;28;20292;-80
2024/02/24 14:23:17;;;;;;;;;;;;;;;;;;6352810;28;19934;-79
2024/02/24 14:26:18;;;;;;;;;;;;;;;;;;6352548;28;19919;-80
2024/02/24 14:29:18;;;;;;;;;;;;;;;;;;6351598;28;19957;-80
2024/02/24 14:32:18;;;;;;;;;;;;;;;;;;6351936;28;20056;-77
2024/02/24 14:35:18;;;;;;;;;;;;;;;;;;6351933;28;19923;-78
2024/02/24 14:38:18;;;;;;;;;;;;;;;;;;6334324;28;19920;-76
2024/02/24 14:41:18;;;;;;;;;;;;;;;;;;6335169;28;19908;-77
2024/02/24 14:44:19;;;;;;;;;;;;;;;;;;6353515;28;20283;-77
2024/02/24 14:47:21;;;;;;;;;;;;;;;;;;6334314;28;19912;-77
2024/02/24 14:50:21;;;;;;;;;;;;;;;;;;6343453;28;19915;-77
2024/02/24 14:53:21;;;;;;;;;;;;;;;;;;6331263;28;19965;-78
2024/02/24 14:56:21;;;;;;;;;;;;;;;;;;6332485;28;19912;-77
2024/02/24 14:59:21;;;;;;;;;;;;;;;;;;6308874;28;19920;-76
2024/02/24 15:02:21;;;;;;;;;;;;;;;;;;6336860;28;19909;-77
2024/02/24 15:05:22;;;;;;;;;;;;;;;;;;6332656;28;19911;-77
2024/02/24 15:08:22;;;;;;;;;;;;;;;;;;6327377;28;19912;-77
2024/02/24 15:11:22;;;;;;;;;;;;;;;;;;6335377;28;19915;-77
2024/02/24 15:14:22;;;;;;;;;;;;;;;;;;6354633;27;20383;-77
2024/02/24 15:17:24;;;;;;;;;;;;;;;;;;6349343;28;20014;-77
2024/02/24 15:20:24;;;;;;;;;;;;;;;;;;6351195;28;19916;-77
2024/02/24 15:23:24;;;;;;;;;;;;;;;;;;6350033;27;19919;-78
2024/02/24 15:26:26;;;;;;;;;;;;;;;;;;6351625;28;20010;-78
2024/02/24 15:29:26;;;;;;;;;;;;;;;;;;6368787;27;19914;-77
2024/02/24 15:32:26;;;;;;;;;;;;;;;;;;6371147;27;19911;-78
2024/02/24 15:35:26;;;;;;;;;;;;;;;;;;6372920;27;19908;-77
2024/02/24 15:38:27;;;;;;;;;;;;;;;;;;6370089;27;20402;-77
2024/02/24 15:41:27;;;;;;;;;;;;;;;;;;6350738;28;19912;-77
2024/02/24 15:44:27;;;;;;;;;;;;;;;;;;6352655;27;19923;-78
2024/02/24 15:47:27;;;;;;;;;;;;;;;;;;6351981;27;19911;-78
2024/02/24 15:50:27;;;;;;;;;;;;;;;;;;6348993;28;20326;-77
2024/02/24 15:53:27;;;;;;;;;;;;;;;;;;6371215;27;19923;-79
2024/02/24 15:56:27;;;;;;;;;;;;;;;;;;6375727;27;20418;-80
2024/02/24 15:59:28;;;;;;;;;;;;;;;;;;6360836;27;19926;-79
2024/02/24 16:02:28;;;;;;;;;;;;;;;;;;6350841;27;19919;-79
2024/02/24 16:05:28;;;;;;;;;;;;;;;;;;6350079;28;19942;-80
2024/02/24 16:08:30;;;;;;;;;;;;;;;;;;6354055;27;20428;-79
2024/02/24 16:11:30;;;;;;;;;;;;;;;;;;6350650;28;19972;-80
2024/02/24 16:14:30;;;;;;;;;;;;;;;;;;6357550;27;20261;-79
2024/02/24 16:17:30;;;;;;;;;;;;;;;;;;6373062;27;20272;-80
2024/02/24 16:20:31;;;;;;;;;;;;;;;;;;6367140;27;19926;-79
2024/02/24 16:23:31;;;;;;;;;;;;;;;;;;6375410;27;19912;-79
2024/02/24 16:26:31;;;;;;;;;;;;;;;;;;6375057;27;20328;-80
2024/02/24 16:29:31;;;;;;;;;;;;;;;;;;6369700;27;20325;-80
2024/02/24 16:32:31;;;;;;;;;;;;;;;;;;6348923;27;19931;-80
2024/02/24 16:35:32;;;;;;;;;;;;;;;;;;6372764;27;19935;-80
2024/02/24 16:38:32;;;;;;;;;;;;;;;;;;6348142;27;19942;-79
2024/02/24 16:41:32;;;;;;;;;;;;;;;;;;6351172;27;19908;-80
2024/02/24 16:44:32;;;;;;;;;;;;;;;;;;6373770;27;20367;-80
2024/02/24 16:47:32;;;;;;;;;;;;;;;;;;6373942;27;19914;-79
2024/02/24 16:50:33;;;;;;;;;;;;;;;;;;6355093;27;19918;-79
2024/02/24 16:53:33;;;;;;;;;;;;;;;;;;6362072;27;19911;-80
2024/02/24 16:56:33;;;;;;;;;;;;;;;;;;6351463;27;19919;-80
2024/02/24 16:59:33;;;;;;;;;;;;;;;;;;6348276;28;19927;-80
2024/02/24 17:02:33;;;;;;;;;;;;;;;;;;6348050;27;20338;-78
2024/02/24 17:05:33;;;;;;;;;;;;;;;;;;6355354;27;19968;-78
2024/02/24 17:08:34;;;;;;;;;;;;;;;;;;6362094;27;19912;-77
2024/02/24 17:11:34;;;;;;;;;;;;;;;;;;6367974;27;19911;-78
2024/02/24 17:14:36;;;;;;;;;;;;;;;;;;6349143;27;19920;-77
2024/02/24 17:17:36;;;;;;;;;;;;;;;;;;6319056;28;19916;-77
2024/02/24 17:20:36;;;;;;;;;;;;;;;;;;6328102;28;20442;-78
2024/02/24 17:23:38;;;;;;;;;;;;;;;;;;6322544;28;19915;-77
2024/02/24 17:26:40;;;;;;;;;;;;;;;;;;6331292;28;19916;-77
2024/02/24 17:29:40;;;;;;;;;;;;;;;;;;6342812;28;19916;-77
2024/02/24 17:32:40;;;;;;;;;;;;;;;;;;6348420;28;19915;-78
2024/02/24 17:35:41;;;;;;;;;;;;;;;;;;6347972;28;19908;-78
2024/02/24 17:38:41;;;;;;;;;;;;;;;;;;6345946;28;19916;-77
2024/02/24 17:41:41;;;;;;;;;;;;;;;;;;6348380;28;19908;-77
2024/02/24 17:44:41;;;;;;;;;;;;;;;;;;6333846;28;20391;-78
2024/02/24 17:47:42;;;;;;;;;;;;;;;;;;6329405;28;19922;-77
2024/02/24 17:50:42;;;;;;;;;;;;;;;;;;6345182;28;20327;-78
2024/02/24 17:53:42;;;;;;;;;;;;;;;;;;6334790;28;19985;-77
2024/02/24 17:56:42;;;;;;;;;;;;;;;;;;6351555;28;19912;-77
2024/02/24 17:59:42;;;;;;;;;;;;;;;;;;6327089;28;19927;-78
2024/02/24 18:02:42;;;;;;;;;;;;;;;;;;6327559;28;20253;-78
2024/02/24 18:05:43;;;;;;;;;;;;;;;;;;6308921;28;20003;-78
2024/02/24 18:08:43;;;;;;;;;;;;;;;;;;6328451;28;20383;-78
2024/02/24 18:11:43;;;;;;;;;;;;;;;;;;6353999;28;20048;-78
2024/02/24 18:14:45;;;;;;;;;;;;;;;;;;6333584;28;19927;-79
2024/02/24 18:17:45;;;;;;;;;;;;;;;;;;6352867;28;19977;-77
2024/02/24 18:20:45;;;;;;;;;;;;;;;;;;6352452;28;19923;-78
2024/02/24 18:23:45;;;;;;;;;;;;;;;;;;6327483;28;20333;-77
2024/02/24 18:26:45;;;;;;;;;;;;;;;;;;6326802;28;19968;-78
2024/02/24 18:29:45;;;;;;;;;;;;;;;;;;6351148;28;20490;-78
2024/02/24 18:32:46;;;;;;;;;;;;;;;;;;6352905;28;19908;-78
2024/02/24 18:35:46;;;;;;;;;;;;;;;;;;6338556;28;19918;-77
2024/02/24 18:38:47;;;;;;;;;;;;;;;;;;6352536;28;19916;-78
2024/02/24 18:41:48;;;;;;;;;;;;;;;;;;6310685;28;19956;-77
2024/02/24 18:44:48;;;;;;;;;;;;;;;;;;6325889;28;19920;-77
2024/02/24 18:47:48;;;;;;;;;;;;;;;;;;6341026;28;19920;-78
2024/02/24 18:50:48;;;;;;;;;;;;;;;;;;6334408;28;19915;-78
2024/02/24 18:53:48;;;;;;;;;;;;;;;;;;6328775;28;20350;-78
2024/02/24 18:56:48;;;;;;;;;;;;;;;;;;6350102;28;20306;-78
2024/02/24 18:59:49;;;;;;;;;;;;;;;;;;6350756;28;19930;-77
2024/02/24 19:02:49;;;;;;;;;;;;;;;;;;6347355;28;20398;-78
2024/02/24 19:05:49;;;;;;;;;;;;;;;;;;6323374;28;19912;-77
2024/02/24 19:08:49;;;;;;;;;;;;;;;;;;6343011;28;19915;-77
2024/02/24 19:11:52;;;;;;;;;;;;;;;;;;6325086;28;19912;-77
2024/02/24 19:14:52;;;;;;;;;;;;;;;;;;6342155;28;20346;-78
2024/02/24 19:17:52;;;;;;;;;;;;;;;;;;6348289;28;20450;-78
2024/02/24 19:20:52;;;;;;;;;;;;;;;;;;6353186;28;19908;-77
2024/02/24 19:23:52;;;;;;;;;;;;;;;;;;6351080;28;19912;-77
2024/02/24 19:26:53;;;;;;;;;;;;;;;;;;6351120;28;19934;-77
2024/02/24 19:29:53;;;;;;;;;;;;;;;;;;6348354;28;20385;-78
2024/02/24 19:32:53;;;;;;;;;;;;;;;;;;6325759;28;19909;-77
2024/02/24 19:35:53;;;;;;;;;;;;;;;;;;6333007;28;19938;-77
2024/02/24 19:38:53;;;;;;;;;;;;;;;;;;6337788;28;19916;-77
2024/02/24 19:41:54;;;;;;;;;;;;;;;;;;6342380;28;19911;-77
2024/02/24 19:44:54;;;;;;;;;;;;;;;;;;6328937;28;19920;-77
2024/02/24 19:47:54;;;;;;;;;;;;;;;;;;6344726;28;19915;-77
2024/02/24 19:50:57;;;;;;;;;;;;;;;;;;6347466;28;19912;-78
2024/02/24 19:53:57;;;;;;;;;;;;;;;;;;6349990;28;19960;-77
2024/02/24 19:56:57;;;;;;;;;;;;;;;;;;6346487;28;19920;-78
2024/02/24 19:59:57;;;;;;;;;;;;;;;;;;6348447;28;19923;-78
2024/02/24 20:02:57;;;;;;;;;;;;;;;;;;6349692;28;19911;-78
2024/02/24 20:05:58;;;;;;;;;;;;;;;;;;6347471;28;19908;-78
2024/02/24 20:08:58;;;;;;;;;;;;;;;;;;6328483;28;19918;-77
2024/02/24 20:11:58;;;;;;;;;;;;;;;;;;6340045;28;20269;-78
2024/02/24 20:14:58;;;;;;;;;;;;;;;;;;6329993;28;19929;-77
2024/02/24 20:17:58;;;;;;;;;;;;;;;;;;6337383;28;19916;-77
2024/02/24 20:20:58;;;;;;;;;;;;;;;;;;6348410;28;19908;-77
2024/02/24 20:23:58;;;;;;;;;;;;;;;;;;6350332;28;19907;-77
2024/02/24 20:26:58;;;;;;;;;;;;;;;;;;6347435;28;19915;-77
2024/02/24 20:29:59;;;;;;;;;;;;;;;;;;6348215;28;20097;-77